Time;durP1;ratioP1;P1;durP2;ratioP2;P2;SDS_P1;SDS_P2;PMS_P1;PMS_P2;Temp;Humidity;BMP_temperature;BMP_pressure;BME280_temperature;BME280_humidity;BME280_pressure;Samples;Min_cycle;Max_cycle;Signal;HPM_P1;HPM_P2
2023/08/03 00:02:05;;;;;;;3.17;1.00;;;;;;;15.90;100.00;98680.59;4990218;28;20061;-62
2023/08/03 00:04:33;;;;;;;2.22;0.95;;;;;;;15.89;100.00;98679.75;4993663;28;20088;-63
2023/08/03 00:07:03;;;;;;;4.57;1.30;;;;;;;15.89;100.00;98685.06;4992960;28;20058;-62
2023/08/03 00:09:31;;;;;;;3.53;1.02;;;;;;;15.88;100.00;98683.44;4994223;28;20057;-62
2023/08/03 00:11:59;;;;;;;4.30;1.20;;;;;;;15.82;100.00;98684.19;4993901;28;20506;-63
2023/08/03 00:14:27;;;;;;;4.82;1.27;;;;;;;15.86;100.00;98689.94;4993746;28;20104;-63
2023/08/03 00:16:56;;;;;;;4.38;1.27;;;;;;;15.86;100.00;98692.59;4993204;28;20050;-63
2023/08/03 00:19:24;;;;;;;3.22;1.15;;;;;;;15.80;100.00;98693.31;4993905;28;20038;-63
2023/08/03 00:21:52;;;;;;;3.70;1.33;;;;;;;15.86;100.00;98692.59;4993696;28;20074;-63
2023/08/03 00:24:22;;;;;;;6.57;1.35;;;;;;;15.82;100.00;98693.97;4994298;28;20058;-62
2023/08/03 00:26:50;;;;;;;2.92;1.20;;;;;;;15.89;100.00;98702.81;4993854;28;20081;-62
2023/08/03 00:29:19;;;;;;;1.80;1.17;;;;;;;15.87;100.00;98702.19;4992398;28;20141;-62
2023/08/03 00:31:47;;;;;;;4.90;1.55;;;;;;;15.78;100.00;98698.78;4993798;28;20042;-62
2023/08/03 00:34:15;;;;;;;3.67;1.33;;;;;;;15.83;100.00;98709.69;4993531;28;20564;-62
2023/08/03 00:36:44;;;;;;;3.78;1.48;;;;;;;15.87;100.00;98712.78;4993846;28;20050;-62
2023/08/03 00:39:12;;;;;;;2.15;1.20;;;;;;;15.93;100.00;98706.72;4993503;28;20057;-62
2023/08/03 00:41:42;;;;;;;2.97;1.33;;;;;;;15.83;100.00;98707.03;4993507;28;20039;-63
2023/08/03 00:44:10;;;;;;;4.55;1.15;;;;;;;15.89;100.00;98719.53;4993088;28;20054;-63
2023/08/03 00:46:39;;;;;;;4.75;1.50;;;;;;;15.88;100.00;98723.19;4993376;28;20409;-63
2023/08/03 00:49:07;;;;;;;3.55;1.50;;;;;;;15.91;100.00;98724.66;4993254;28;20632;-62
2023/08/03 00:51:35;;;;;;;3.88;1.70;;;;;;;15.86;100.00;98729.69;4993731;28;20105;-63
2023/08/03 00:54:07;;;;;;;3.70;1.80;;;;;;;15.88;100.00;98732.97;4988491;28;20074;-63
2023/08/03 00:56:35;;;;;;;4.43;1.70;;;;;;;15.86;100.00;98732.34;4988566;28;20073;-57
2023/08/03 00:59:06;;;;;;;5.72;1.80;;;;;;;15.95;100.00;98739.19;4989181;28;20121;-56
2023/08/03 01:01:35;;;;;;;5.70;2.20;;;;;;;15.97;100.00;98744.28;4991209;28;20393;-63
2023/08/03 01:04:03;;;;;;;5.43;2.60;;;;;;;15.94;100.00;98737.53;4992841;28;20074;-63
2023/08/03 01:06:31;;;;;;;6.10;2.47;;;;;;;15.99;100.00;98748.41;4992917;28;20044;-63
2023/08/03 01:09:00;;;;;;;5.38;2.47;;;;;;;15.99;100.00;98760.81;4992811;28;20093;-63
2023/08/03 01:11:30;;;;;;;8.02;3.42;;;;;;;16.01;100.00;98743.72;4992843;28;20093;-63
2023/08/03 01:13:59;;;;;;;5.82;2.70;;;;;;;16.02;100.00;98761.28;4992800;28;20047;-63
2023/08/03 01:16:32;;;;;;;7.03;3.13;;;;;;;15.97;100.00;98761.00;4993431;28;20054;-63
2023/08/03 01:19:00;;;;;;;6.53;3.10;;;;;;;15.99;100.00;98774.91;4992990;28;20050;-63
2023/08/03 01:21:30;;;;;;;8.15;3.10;;;;;;;15.98;100.00;98775.91;4993163;28;20047;-63
2023/08/03 01:24:00;;;;;;;8.20;3.20;;;;;;;15.98;100.00;98781.22;4992196;28;20446;-58
2023/08/03 01:26:28;;;;;;;10.50;3.70;;;;;;;15.94;100.00;98787.06;4991196;28;20441;-57
2023/08/03 01:28:56;;;;;;;8.57;3.53;;;;;;;15.98;100.00;98804.22;4990497;28;20132;-58
2023/08/03 01:31:25;;;;;;;9.05;3.22;;;;;;;15.98;100.00;98807.72;4991854;28;20125;-57
2023/08/03 01:33:54;;;;;;;9.63;3.35;;;;;;;15.99;100.00;98813.84;4991430;28;20046;-57
2023/08/03 01:36:22;;;;;;;7.60;2.85;;;;;;;15.98;100.00;98807.72;4991110;28;20085;-57
2023/08/03 01:38:55;;;;;;;6.72;2.45;;;;;;;16.00;100.00;98818.16;4994809;28;20112;-56
2023/08/03 01:41:25;;;;;;;8.95;2.10;;;;;;;15.96;100.00;98820.31;4995397;28;20058;-56
2023/08/03 01:44:25;;;;;;;4.50;1.50;;;;;;;16.01;100.00;98823.25;4995212;28;20049;-56
2023/08/03 01:46:55;;;;;;;6.63;2.00;;;;;;;15.98;100.00;98826.28;4995345;28;20073;-57
2023/08/03 01:49:24;;;;;;;4.75;1.75;;;;;;;15.99;100.00;98827.94;4991897;28;20046;-57
2023/08/03 01:51:53;;;;;;;7.45;2.10;;;;;;;15.99;100.00;98833.25;4992149;28;20054;-57
2023/08/03 01:54:21;;;;;;;5.35;2.20;;;;;;;16.02;100.00;98832.88;4990088;28;20046;-56
2023/08/03 01:56:51;;;;;;;8.95;3.33;;;;;;;16.11;100.00;98830.09;4993690;28;20081;-56
2023/08/03 01:59:19;;;;;;;10.20;3.40;;;;;;;16.12;100.00;98845.03;4995266;28;20129;-55
2023/08/03 02:01:47;;;;;;;8.38;3.25;;;;;;;16.13;100.00;98844.00;4990197;28;20056;-55
2023/08/03 02:04:16;;;;;;;9.40;3.17;;;;;;;16.14;100.00;98843.84;4991965;28;20081;-56
2023/08/03 02:06:48;;;;;;;8.45;3.40;;;;;;;16.12;100.00;98851.13;4992844;28;20093;-57
2023/08/03 02:09:16;;;;;;;8.60;3.17;;;;;;;16.14;100.00;98850.94;4990641;28;20058;-55
2023/08/03 02:11:45;;;;;;;10.90;3.72;;;;;;;16.21;100.00;98854.50;4993363;28;20398;-62
2023/08/03 02:14:15;;;;;;;9.80;4.07;;;;;;;16.17;100.00;98863.81;4995240;28;20046;-62
2023/08/03 02:16:43;;;;;;;8.68;3.35;;;;;;;16.25;100.00;98858.41;4996741;28;20494;-62
2023/08/03 02:19:12;;;;;;;9.35;4.05;;;;;;;16.21;100.00;98859.78;4996228;28;20521;-62
2023/08/03 02:21:40;;;;;;;11.02;3.47;;;;;;;16.18;100.00;98860.19;4996596;28;20133;-62
2023/08/03 02:24:09;;;;;;;12.85;3.75;;;;;;;16.18;100.00;98865.47;4994805;28;20053;-62
2023/08/03 02:26:37;;;;;;;8.85;3.28;;;;;;;16.20;100.00;98872.25;4996068;28;20042;-62
2023/08/03 02:29:05;;;;;;;10.80;3.47;;;;;;;16.21;100.00;98870.41;4993322;28;20469;-56
2023/08/03 02:31:35;;;;;;;10.23;3.45;;;;;;;16.18;100.00;98876.09;4991653;28;20517;-55
2023/08/03 02:34:04;;;;;;;8.55;3.60;;;;;;;16.20;100.00;98874.09;4993795;28;20058;-62
2023/08/03 02:36:32;;;;;;;7.80;3.58;;;;;;;16.23;100.00;98876.38;4995409;28;20125;-63
2023/08/03 02:39:00;;;;;;;9.68;3.78;;;;;;;16.29;100.00;98885.41;4993684;28;20085;-62
2023/08/03 02:41:31;;;;;;;11.95;4.07;;;;;;;16.21;100.00;98888.97;4995898;28;20055;-62
2023/08/03 02:43:59;;;;;;;10.93;3.60;;;;;;;16.21;100.00;98881.00;4995958;28;20046;-62
2023/08/03 02:46:28;;;;;;;12.27;4.10;;;;;;;16.25;100.00;98884.94;4995635;28;20039;-64
2023/08/03 02:48:57;;;;;;;9.70;3.95;;;;;;;16.23;100.00;98881.66;4995662;28;20465;-62
2023/08/03 02:51:25;;;;;;;12.48;4.20;;;;;;;16.23;100.00;98884.31;4995930;28;20034;-62
2023/08/03 02:53:54;;;;;;;11.15;4.25;;;;;;;16.26;100.00;98889.25;4995980;28;20046;-63
2023/08/03 02:56:22;;;;;;;11.98;4.70;;;;;;;16.32;100.00;98885.03;4994280;28;20104;-63
2023/08/03 02:58:50;;;;;;;13.15;4.45;;;;;;;16.34;100.00;98885.69;4994242;28;20054;-62
2023/08/03 03:01:19;;;;;;;13.27;4.25;;;;;;;16.33;100.00;98895.47;4994976;28;20430;-63
2023/08/03 03:03:48;;;;;;;12.35;4.57;;;;;;;16.36;100.00;98900.41;4994557;28;20077;-63
2023/08/03 03:06:18;;;;;;;10.98;4.13;;;;;;;16.38;100.00;98903.69;4994384;28;20042;-63
2023/08/03 03:08:46;;;;;;;11.50;5.03;;;;;;;16.31;100.00;98908.09;4994059;28;20058;-63
2023/08/03 03:11:14;;;;;;;11.30;4.75;;;;;;;16.33;100.00;98916.69;4993966;28;20561;-65
2023/08/03 03:13:46;;;;;;;12.70;5.43;;;;;;;16.35;100.00;98904.06;4992482;28;20057;-57
2023/08/03 03:16:14;;;;;;;9.63;5.30;;;;;;;16.33;100.00;98913.19;4993792;28;20066;-64
2023/08/03 03:18:42;;;;;;;13.02;5.55;;;;;;;16.27;100.00;98924.56;4993577;28;20056;-65
2023/08/03 03:21:11;;;;;;;8.38;3.38;;;;;;;16.05;100.00;98917.31;4993570;28;20451;-64
2023/08/03 03:23:40;;;;;;;7.20;3.55;;;;;;;16.07;100.00;98926.94;4993648;28;20068;-64
2023/08/03 03:26:09;;;;;;;10.13;4.22;;;;;;;16.05;100.00;98937.72;4994313;28;20054;-64
2023/08/03 03:28:37;;;;;;;8.65;4.47;;;;;;;16.07;100.00;98926.94;4993468;28;20775;-65
2023/08/03 03:31:05;;;;;;;8.75;4.30;;;;;;;16.11;100.00;98920.25;4994107;28;20133;-63
2023/08/03 03:33:34;;;;;;;9.38;4.20;;;;;;;16.12;100.00;98924.56;4992878;28;20061;-58
2023/08/03 03:36:02;;;;;;;8.27;4.72;;;;;;;16.19;100.00;98914.88;4993568;28;20042;-57
2023/08/03 03:38:30;;;;;;;8.85;4.30;;;;;;;16.18;100.00;98910.56;4993795;28;20054;-62
2023/08/03 03:41:00;;;;;;;9.27;4.82;;;;;;;16.10;100.00;98918.59;4994114;28;20050;-63
2023/08/03 03:43:28;;;;;;;8.55;3.35;;;;;;;16.00;100.00;98913.56;4993710;28;20046;-64
2023/08/03 03:45:56;;;;;;;5.32;3.08;;;;;;;16.03;100.00;98916.69;4993313;28;20544;-63
2023/08/03 03:48:25;;;;;;;6.65;3.13;;;;;;;16.02;100.00;98919.50;4993458;28;20058;-63
2023/08/03 03:50:53;;;;;;;6.18;2.50;;;;;;;15.99;100.00;98917.22;4991863;28;20530;-64
2023/08/03 03:53:22;;;;;;;7.07;2.60;;;;;;;16.03;100.00;98902.59;4992818;28;20133;-64
2023/08/03 03:55:50;;;;;;;6.95;2.60;;;;;;;16.02;100.00;98907.09;4992914;28;20101;-64
2023/08/03 03:58:20;;;;;;;4.55;2.38;;;;;;;16.02;100.00;98909.75;4992880;28;20145;-65
2023/08/03 04:00:48;;;;;;;4.10;1.95;;;;;;;16.02;100.00;98915.03;4992578;28;20053;-64
2023/08/03 04:03:16;;;;;;;3.58;1.88;;;;;;;16.03;100.00;98911.41;4992643;28;20042;-63
2023/08/03 04:05:45;;;;;;;3.25;1.70;;;;;;;16.04;100.00;98915.66;4992786;28;20502;-57
2023/08/03 04:08:13;;;;;;;5.05;2.00;;;;;;;16.00;100.00;98911.75;4993353;28;20070;-62
2023/08/03 04:10:41;;;;;;;4.28;2.33;;;;;;;15.98;100.00;98919.06;4993185;28;20089;-62
2023/08/03 04:13:10;;;;;;;6.28;2.45;;;;;;;16.04;100.00;98923.63;4993009;28;20054;-56
2023/08/03 04:15:39;;;;;;;5.90;2.85;;;;;;;15.98;100.00;98919.06;4991399;28;20444;-57
2023/08/03 04:18:08;;;;;;;11.60;3.70;;;;;;;15.92;100.00;98922.44;4989905;28;20046;-63
2023/08/03 04:20:36;;;;;;;8.55;4.20;;;;;;;15.93;100.00;98928.56;4990311;28;20038;-62
2023/08/03 04:23:04;;;;;;;10.68;4.82;;;;;;;15.93;100.00;98942.63;4992751;28;20093;-63
2023/08/03 04:25:33;;;;;;;10.70;5.03;;;;;;;15.92;100.00;98948.94;4993201;28;20077;-62
2023/08/03 04:28:01;;;;;;;8.82;4.45;;;;;;;15.95;100.00;98945.09;4992744;28;20093;-63
2023/08/03 04:30:30;;;;;;;8.40;4.70;;;;;;;15.97;100.00;98930.66;4993294;28;20042;-62
2023/08/03 04:32:59;;;;;;;11.98;4.70;;;;;;;15.97;100.00;98943.94;4993562;28;20100;-62
2023/08/03 04:35:30;;;;;;;10.55;5.00;;;;;;;15.95;100.00;98939.81;4993721;28;20089;-62
2023/08/03 04:37:59;;;;;;;10.75;5.30;;;;;;;15.98;100.00;98942.94;4993607;28;20435;-62
2023/08/03 04:40:27;;;;;;;9.48;4.63;;;;;;;15.95;100.00;98956.56;4993531;28;20057;-62
2023/08/03 04:42:57;;;;;;;8.60;4.68;;;;;;;15.96;100.00;98957.38;4991529;28;20521;-56
2023/08/03 04:45:26;;;;;;;7.63;4.15;;;;;;;16.03;100.00;98966.22;4989216;28;20082;-57
2023/08/03 04:47:54;;;;;;;7.18;3.55;;;;;;;16.01;100.00;98976.22;4988714;28;20054;-58
2023/08/03 04:50:24;;;;;;;10.95;3.55;;;;;;;16.01;100.00;98979.66;4988944;28;20048;-57
2023/08/03 04:52:52;;;;;;;6.60;3.38;;;;;;;15.95;100.00;98975.09;4988952;28;20444;-57
2023/08/03 04:55:20;;;;;;;7.43;3.00;;;;;;;15.98;100.00;98985.34;4990954;28;20105;-57
2023/08/03 04:57:49;;;;;;;8.02;2.90;;;;;;;15.99;100.00;99000.25;4988452;28;20065;-57
2023/08/03 05:00:17;;;;;;;7.90;2.88;;;;;;;15.99;100.00;99005.56;4990512;28;20054;-57
2023/08/03 05:02:49;;;;;;;8.02;2.58;;;;;;;15.98;100.00;99009.19;4994370;28;20457;-62
2023/08/03 05:05:18;;;;;;;10.13;3.03;;;;;;;15.98;100.00;99019.81;4996963;28;20042;-63
2023/08/03 05:07:47;;;;;;;7.95;2.42;;;;;;;16.03;100.00;99019.25;4996531;28;20088;-62
2023/08/03 05:10:16;;;;;;;7.38;2.58;;;;;;;16.03;100.00;99022.75;4996417;28;20129;-63
2023/08/03 05:12:44;;;;;;;10.75;2.33;;;;;;;16.04;100.00;99026.22;4996156;28;20520;-63
2023/08/03 05:15:12;;;;;;;5.78;2.20;;;;;;;16.07;100.00;99027.69;4996531;28;20046;-63
2023/08/03 05:17:40;;;;;;;8.68;2.38;;;;;;;16.09;100.00;99030.97;4996415;28;20073;-63
2023/08/03 05:20:10;;;;;;;9.88;2.83;;;;;;;16.06;100.00;99042.78;4996508;28;20509;-63
2023/08/03 05:22:38;;;;;;;8.13;1.90;;;;;;;16.09;100.00;99039.75;4996750;28;20101;-63
2023/08/03 05:25:08;;;;;;;11.70;2.35;;;;;;;16.11;100.00;99045.69;4995505;28;20046;-62
2023/08/03 05:27:37;;;;;;;7.82;2.20;;;;;;;16.09;100.00;99044.22;4997131;28;20501;-63
2023/08/03 05:30:07;;;;;;;8.77;1.98;;;;;;;16.14;100.00;99049.81;4996639;28;20050;-62
2023/08/03 05:32:36;;;;;;;9.32;1.70;;;;;;;16.08;100.00;99042.59;4996575;28;20486;-63
2023/08/03 05:35:05;;;;;;;7.68;1.63;;;;;;;16.11;100.00;99044.88;4995405;28;21185;-57
2023/08/03 05:37:33;;;;;;;9.48;1.90;;;;;;;16.13;100.00;99042.84;4995413;28;20058;-59
2023/08/03 05:40:03;;;;;;;7.90;2.13;;;;;;;16.09;100.00;99054.84;4995184;28;20398;-58
2023/08/03 05:42:38;;;;;;;3.70;1.33;;;;;;;16.09;100.00;99058.31;4992573;28;20053;-57
2023/08/03 05:45:11;;;;;;;11.70;2.70;;;;;;;16.05;100.00;99067.63;4991810;28;20109;-57
2023/08/03 05:47:40;;;;;;;8.40;1.70;;;;;;;16.01;100.00;99066.34;4991721;28;20081;-63
2023/08/03 05:50:14;;;;;;;9.60;2.00;;;;;;;16.05;100.00;99072.94;4993635;28;20397;-63
2023/08/03 05:52:43;;;;;;;10.52;2.25;;;;;;;16.08;100.00;99080.53;4993527;28;20047;-57
2023/08/03 05:55:12;;;;;;;8.38;1.85;;;;;;;16.02;100.00;99071.47;4989711;28;20039;-57
2023/08/03 05:57:41;;;;;;;10.60;1.83;;;;;;;16.07;100.00;99080.72;4991401;28;20057;-57
2023/08/03 06:00:19;;;;;;;6.80;2.00;;;;;;;16.09;100.00;99086.66;4991971;28;20429;-57
2023/08/03 06:02:48;;;;;;;11.23;2.55;;;;;;;16.08;100.00;99098.28;4991549;28;20074;-56
2023/08/03 06:05:42;;;;;;;10.02;1.95;;;;;;;16.08;100.00;99087.69;4991535;28;20486;-56
2023/08/03 06:08:17;;;;;;;9.02;2.25;;;;;;;16.11;100.00;99095.25;4991370;28;20603;-57
2023/08/03 06:10:47;;;;;;;10.80;1.90;;;;;;;16.10;100.00;99098.91;4990236;28;20054;-56
2023/08/03 06:13:19;;;;;;;10.07;2.17;;;;;;;16.04;100.00;99103.09;4990985;28;20050;-56
2023/08/03 06:15:48;;;;;;;9.77;2.40;;;;;;;16.10;100.00;99107.72;4990520;28;20054;-56
2023/08/03 06:18:18;;;;;;;11.32;2.95;;;;;;;16.10;100.00;99109.50;4991231;28;20533;-56
2023/08/03 06:20:48;;;;;;;9.20;2.30;;;;;;;16.08;100.00;99116.84;4992467;28;20042;-56
2023/08/03 06:23:18;;;;;;;7.20;1.88;;;;;;;16.09;100.00;99127.25;4991728;28;20489;-56
2023/08/03 06:25:47;;;;;;;5.40;1.63;;;;;;;16.23;100.00;99138.91;4991199;28;20056;-57
2023/08/03 06:28:19;;;;;;;12.27;2.38;;;;;;;16.17;100.00;99144.91;4991640;28;20421;-56
2023/08/03 06:30:49;;;;;;;7.05;2.28;;;;;;;16.14;100.00;99137.31;4991351;28;20137;-57
2023/08/03 06:33:21;;;;;;;;;;;;;;;16.18;100.00;99144.75;4991290;28;20690;-57
2023/08/03 06:35:52;;;;;;;6.45;2.10;;;;;;;16.13;100.00;99143.63;4991439;28;19922;-57
2023/08/03 06:38:22;;;;;;;9.88;2.35;;;;;;;16.08;100.00;99149.47;4989955;28;20637;-57
2023/08/03 06:40:51;;;;;;;9.02;1.77;;;;;;;16.09;100.00;99153.78;4990930;28;20049;-63
2023/08/03 06:43:21;;;;;;;4.30;1.58;;;;;;;16.11;100.00;99154.41;4993915;28;20050;-56
2023/08/03 06:45:52;;;;;;;11.18;2.58;;;;;;;16.14;100.00;99166.50;4992633;28;20050;-63
2023/08/03 06:48:23;;;;;;;10.25;1.90;;;;;;;16.17;100.00;99169.63;4991122;28;20049;-59
2023/08/03 06:50:55;;;;;;;12.85;2.35;;;;;;;16.24;100.00;99164.44;4992697;28;20117;-56
2023/08/03 06:53:24;;;;;;;6.40;1.65;;;;;;;16.22;100.00;99169.09;4989260;28;20058;-56
2023/08/03 06:55:52;;;;;;;8.90;2.38;;;;;;;16.25;100.00;99174.03;4990406;28;20374;-56
2023/08/03 06:58:22;;;;;;;9.30;1.90;;;;;;;16.20;100.00;99171.09;4992479;28;20116;-56
2023/08/03 07:00:50;;;;;;;12.10;2.10;;;;;;;16.25;100.00;99184.63;4990141;28;20509;-56
2023/08/03 07:03:18;;;;;;;8.18;2.35;;;;;;;16.26;100.00;99186.28;4990703;28;20046;-56
2023/08/03 07:05:47;;;;;;;10.75;2.13;;;;;;;16.25;100.00;99182.00;4992820;28;20051;-56
2023/08/03 07:08:15;;;;;;;8.40;2.00;;;;;;;16.32;100.00;99198.88;4992635;28;20445;-56
2023/08/03 07:10:44;;;;;;;9.20;1.95;;;;;;;16.45;100.00;99197.44;4991030;28;20038;-62
2023/08/03 07:13:15;;;;;;;12.05;2.53;;;;;;;16.49;100.00;99209.34;4994279;28;20101;-56
2023/08/03 07:15:45;;;;;;;9.98;2.35;;;;;;;16.50;100.00;99211.81;4993504;28;20046;-57
2023/08/03 07:18:13;;;;;;;10.20;2.13;;;;;;;16.43;100.00;99202.09;4993591;28;20409;-57
2023/08/03 07:20:42;;;;;;;7.40;1.70;;;;;;;16.47;100.00;99211.34;4993615;28;20100;-56
2023/08/03 07:23:10;;;;;;;10.50;2.13;;;;;;;16.59;100.00;99214.41;4993149;28;20050;-61
2023/08/03 07:25:39;;;;;;;11.70;2.58;;;;;;;16.53;100.00;99226.56;4993086;28;20104;-65
2023/08/03 07:28:08;;;;;;;5.80;1.52;;;;;;;16.51;100.00;99221.44;4993415;28;20050;-64
2023/08/03 07:30:36;;;;;;;7.85;1.85;;;;;;;16.56;100.00;99228.84;4993631;28;20050;-63
2023/08/03 07:33:06;;;;;;;6.45;1.77;;;;;;;16.43;100.00;99231.28;4994113;28;20439;-63
2023/08/03 07:35:38;;;;;;;6.75;1.45;;;;;;;16.46;100.00;99218.47;4994329;28;20073;-63
2023/08/03 07:38:06;;;;;;;8.52;1.80;;;;;;;16.59;100.00;99228.50;4993490;28;20538;-63
2023/08/03 07:40:34;;;;;;;9.23;1.63;;;;;;;16.68;100.00;99232.72;4994102;28;20056;-63
2023/08/03 07:43:03;;;;;;;9.48;1.67;;;;;;;16.66;100.00;99232.09;4993994;28;20066;-62
2023/08/03 07:45:31;;;;;;;8.75;2.00;;;;;;;16.70;100.00;99237.84;4993685;28;20050;-63
2023/08/03 07:48:02;;;;;;;6.72;1.73;;;;;;;16.73;100.00;99246.28;4992736;28;20042;-56
2023/08/03 07:50:32;;;;;;;7.03;1.45;;;;;;;16.70;100.00;99241.34;4992781;28;20113;-57
2023/08/03 07:53:00;;;;;;;7.13;1.88;;;;;;;16.68;100.00;99243.34;4990546;28;20557;-56
2023/08/03 07:55:28;;;;;;;9.20;1.92;;;;;;;16.71;100.00;99242.16;4987827;28;20050;-56
2023/08/03 07:57:57;;;;;;;7.38;2.05;;;;;;;16.75;100.00;99251.41;4990543;28;20046;-57
2023/08/03 08:00:26;;;;;;;8.77;1.98;;;;;;;16.78;100.00;99252.91;4992518;28;20104;-57
2023/08/03 08:02:54;;;;;;;7.85;1.77;;;;;;;16.81;100.00;99253.38;4989543;28;20084;-57
2023/08/03 08:05:23;;;;;;;7.45;1.50;;;;;;;16.78;100.00;99260.84;4989293;28;20046;-57
2023/08/03 08:07:54;;;;;;;5.25;1.67;;;;;;;16.88;100.00;99264.09;4991573;28;20142;-56
2023/08/03 08:10:23;;;;;;;6.10;1.85;;;;;;;17.00;100.00;99264.50;4989753;28;20043;-56
2023/08/03 08:12:51;;;;;;;6.10;1.45;;;;;;;16.92;100.00;99265.44;4989089;28;20072;-56
2023/08/03 08:15:20;;;;;;;6.75;1.73;;;;;;;16.95;100.00;99273.03;4989483;28;20056;-56
2023/08/03 08:17:48;;;;;;;6.25;1.75;;;;;;;16.80;100.00;99265.00;4989338;28;20042;-56
2023/08/03 08:20:17;;;;;;;6.20;1.70;;;;;;;16.92;100.00;99273.41;4987389;28;20038;-56
2023/08/03 08:22:45;;;;;;;5.85;1.75;;;;;;;16.81;100.00;99271.13;4989078;28;20069;-56
2023/08/03 08:25:15;;;;;;;7.47;1.60;;;;;;;16.84;100.00;99284.88;4989903;28;20042;-63
2023/08/03 08:27:43;;;;;;;6.50;1.70;;;;;;;16.81;100.00;99281.72;4991814;28;20046;-63
2023/08/03 08:30:12;;;;;;;6.78;1.75;;;;;;;16.88;100.00;99290.66;4993041;28;20120;-63
2023/08/03 08:32:40;;;;;;;3.90;1.50;;;;;;;16.89;100.00;99289.66;4992520;28;20046;-63
2023/08/03 08:35:08;;;;;;;8.70;1.88;;;;;;;16.99;100.00;99294.75;4992641;28;20117;-63
2023/08/03 08:37:36;;;;;;;7.72;1.90;;;;;;;16.94;100.00;99297.09;4991312;28;20042;-63
2023/08/03 08:40:06;;;;;;;6.95;2.05;;;;;;;16.92;100.00;99301.75;4993527;28;20547;-63
2023/08/03 08:42:36;;;;;;;7.88;2.10;;;;;;;16.87;100.00;99299.63;4994084;28;20086;-63
2023/08/03 08:45:06;;;;;;;11.25;2.28;;;;;;;16.93;100.00;99306.06;4993513;28;20150;-63
2023/08/03 08:47:38;;;;;;;9.30;2.25;;;;;;;16.97;100.00;99310.00;4994262;28;20082;-63
2023/08/03 08:50:07;;;;;;;11.77;2.45;;;;;;;17.04;100.00;99317.09;4991910;28;20135;-63
2023/08/03 08:52:42;;;;;;;7.00;2.17;;;;;;;17.06;100.00;99323.03;4993250;28;20070;-63
2023/08/03 08:55:14;;;;;;;10.27;2.50;;;;;;;17.18;100.00;99336.72;4992135;28;20053;-63
2023/08/03 08:58:03;;;;;;;7.30;2.25;;;;;;;17.29;100.00;99331.97;4993796;28;20532;-63
2023/08/03 09:00:43;;;;;;;8.88;3.00;;;;;;;17.32;100.00;99348.38;4993577;28;20045;-62
2023/08/03 09:03:13;;;;;;;6.60;2.15;;;;;;;17.36;100.00;99351.53;4992338;28;20058;-62
2023/08/03 09:05:41;;;;;;;7.32;2.25;;;;;;;17.43;100.00;99356.94;4993218;28;20065;-62
2023/08/03 09:08:14;;;;;;;7.93;2.47;;;;;;;17.60;100.00;99368.22;4993619;28;20410;-63
2023/08/03 09:10:50;;;;;;;7.25;2.35;;;;;;;17.73;100.00;99374.56;4992363;28;20149;-62
2023/08/03 09:13:31;;;;;;;10.60;2.85;;;;;;;17.94;100.00;99396.16;4993602;28;20138;-62
2023/08/03 09:16:00;;;;;;;10.02;3.20;;;;;;;18.18;100.00;99400.38;4993569;28;20046;-62
2023/08/03 09:18:30;;;;;;;8.90;3.08;;;;;;;18.32;100.00;99404.03;4994065;28;20130;-62
2023/08/03 09:21:11;;;;;;;8.32;2.38;;;;;;;18.15;100.00;99422.84;4993944;28;20049;-62
2023/08/03 09:23:43;;;;;;;7.95;3.00;;;;;;;18.14;100.00;99423.84;4993152;28;20093;-62
2023/08/03 09:26:15;;;;;;;10.50;2.58;;;;;;;18.21;100.00;99434.59;4993488;28;20062;-62
2023/08/03 09:29:13;;;;;;;7.13;2.20;;;;;;;18.20;100.00;99440.91;4993166;28;20410;-62
2023/08/03 09:31:51;;;;;;;8.23;2.47;;;;;;;18.50;100.00;99447.06;4992925;28;20047;-61
2023/08/03 09:34:22;;;;;;;7.65;2.35;;;;;;;18.68;100.00;99446.66;4992786;28;20460;-62
2023/08/03 09:36:53;;;;;;;6.05;2.90;;;;;;;18.69;100.00;99456.31;4992361;28;20054;-57
2023/08/03 09:39:29;;;;;;;7.80;3.30;;;;;;;18.95;100.00;99456.81;4991748;28;20057;-60
2023/08/03 09:41:59;;;;;;;10.48;4.10;;;;;;;19.09;100.00;99475.41;4991846;28;20529;-60
2023/08/03 09:44:31;;;;;;;12.52;3.83;;;;;;;19.41;100.00;99481.28;4991862;28;20138;-61
2023/08/03 09:47:00;;;;;;;9.38;3.65;;;;;;;19.55;100.00;99476.88;4991849;28;20130;-58
2023/08/03 09:49:29;;;;;;;8.07;3.55;;;;;;;19.57;100.00;99487.34;4994484;28;20537;-59
2023/08/03 09:52:00;;;;;;;8.00;3.33;;;;;;;19.72;100.00;99488.09;4995322;28;20506;-59
2023/08/03 09:54:40;;;;;;;8.32;2.95;;;;;;;19.89;100.00;99509.19;4995405;28;20373;-59
2023/08/03 09:57:13;;;;;;;7.40;3.00;;;;;;;20.14;100.00;99500.72;4995135;28;20529;-59
2023/08/03 09:59:47;;;;;;;7.15;2.78;;;;;;;20.20;100.00;99507.97;4995173;28;20390;-59
2023/08/03 10:02:22;;;;;;;6.00;2.47;;;;;;;20.29;100.00;99517.47;4995449;28;20138;-59
2023/08/03 10:04:56;;;;;;;8.70;2.50;;;;;;;20.24;100.00;99519.91;4994936;28;20125;-59
2023/08/03 10:07:29;;;;;;;7.60;2.85;;;;;;;20.40;100.00;99534.81;4994766;28;20197;-60
2023/08/03 10:10:00;;;;;;;6.15;2.22;;;;;;;20.45;100.00;99532.38;4994777;28;20396;-59
2023/08/03 10:12:35;;;;;;;7.43;2.40;;;;;;;20.64;100.00;99541.50;4994843;28;20569;-59
2023/08/03 10:15:09;;;;;;;7.20;2.40;;;;;;;20.52;100.00;99545.72;4994664;28;20050;-58
2023/08/03 10:17:38;;;;;;;10.48;2.78;;;;;;;20.39;100.00;99568.66;4994628;28;20042;-55
2023/08/03 10:20:10;;;;;;;7.88;2.10;;;;;;;20.24;100.00;99570.63;4994977;28;20522;-56
2023/08/03 10:22:38;;;;;;;6.85;2.03;;;;;;;20.04;100.00;99571.31;4994983;28;20046;-56
2023/08/03 10:25:17;;;;;;;6.47;2.20;;;;;;;20.06;100.00;99573.78;4994244;28;20112;-55
2023/08/03 10:28:13;;;;;;;5.85;2.17;;;;;;;20.14;100.00;99568.28;4994778;28;20073;-56
2023/08/03 10:31:10;;;;;;;6.35;2.10;;;;;;;20.60;100.00;99577.63;4994652;28;20085;-56
2023/08/03 10:34:08;;;;;;;6.28;2.13;;;;;;;20.98;100.00;99577.25;4990312;28;21006;-55
2023/08/03 10:36:46;;;;;;;6.35;2.17;;;;;;;20.84;100.00;99586.22;4991405;28;20086;-60
2023/08/03 10:39:16;;;;;;;6.70;2.15;;;;;;;20.63;100.00;99593.28;4994530;28;20054;-60
2023/08/03 10:41:46;;;;;;;7.03;2.60;;;;;;;21.02;100.00;99597.19;4994833;28;20109;-59
2023/08/03 10:44:25;;;;;;;9.50;2.60;;;;;;;21.08;100.00;99596.41;4994121;28;20066;-55
2023/08/03 10:46:56;;;;;;;6.57;1.85;;;;;;;21.07;100.00;99607.31;4992586;28;20054;-61
2023/08/03 10:49:59;;;;;;;8.88;2.25;;;;;;;20.67;100.00;99621.25;4994177;28;20048;-61
2023/08/03 10:52:29;;;;;;;5.57;1.25;;;;;;;20.23;100.00;99623.19;4992748;28;20057;-58
2023/08/03 10:54:59;;;;;;;4.50;1.00;;;;;;;20.01;100.00;99641.03;4994090;28;20057;-56
2023/08/03 10:57:29;;;;;;;3.63;1.20;;;;;;;19.99;100.00;99647.56;4990613;28;20061;-60
2023/08/03 10:59:59;;;;;;;4.32;1.17;;;;;;;19.76;100.00;99660.06;4990972;28;20133;-60
2023/08/03 11:02:31;;;;;;;6.25;1.40;;;;;;;19.80;100.00;99657.03;4993666;28;20069;-61
2023/08/03 11:05:02;;;;;;;4.88;1.38;;;;;;;19.79;100.00;99663.38;4993603;28;20068;-60
2023/08/03 11:07:38;;;;;;;4.68;1.42;;;;;;;19.75;100.00;99661.06;4993701;28;20052;-60
2023/08/03 11:10:09;;;;;;;3.00;1.25;;;;;;;19.81;100.00;99659.53;4994010;28;20042;-60
2023/08/03 11:12:41;;;;;;;5.25;1.35;;;;;;;19.73;100.00;99656.94;4993762;28;20142;-56
2023/08/03 11:15:10;;;;;;;4.70;1.40;;;;;;;19.65;100.00;99665.88;4993444;28;20137;-56
2023/08/03 11:17:40;;;;;;;6.07;1.63;;;;;;;19.66;100.00;99672.03;4993607;28;20042;-56
2023/08/03 11:20:09;;;;;;;5.63;1.58;;;;;;;19.68;100.00;99673.50;4993390;28;20061;-56
2023/08/03 11:22:38;;;;;;;7.57;1.80;;;;;;;19.62;100.00;99674.28;4993363;28;20149;-55
2023/08/03 11:25:07;;;;;;;6.55;2.05;;;;;;;19.63;100.00;99673.22;4992476;28;20054;-55
2023/08/03 11:27:41;;;;;;;6.00;1.77;;;;;;;19.82;100.00;99684.34;4989939;28;20049;-55
2023/08/03 11:30:12;;;;;;;7.45;2.10;;;;;;;19.73;100.00;99700.44;4991946;28;20100;-55
2023/08/03 11:32:42;;;;;;;5.07;1.48;;;;;;;19.68;100.00;99704.69;4989633;28;20085;-57
2023/08/03 11:35:10;;;;;;;4.40;1.60;;;;;;;19.50;100.00;99708.56;4989971;28;20066;-56
2023/08/03 11:37:39;;;;;;;5.28;1.70;;;;;;;19.49;100.00;99725.56;4993122;28;20538;-61
2023/08/03 11:40:11;;;;;;;5.32;1.60;;;;;;;19.67;100.00;99730.50;4993203;28;20116;-61